Time;durP1;ratioP1;P1;durP2;ratioP2;P2;SDS_P1;SDS_P2;PMS_P1;PMS_P2;Temp;Humidity;BMP_temperature;BMP_pressure;BME280_temperature;BME280_humidity;BME280_pressure;Samples;Min_cycle;Max_cycle;Signal;HPM_P1;HPM_P2
2023/12/28 00:00:17;;;;;;;;;59.60;45.60;;;;;7.26;100.00;99089.91;6199338;28;96346;-55
2023/12/28 00:03:20;;;;;;;;;56.00;45.00;;;;;7.24;100.00;99091.09;6208164;28;96386;-55
2023/12/28 00:06:23;;;;;;;;;53.60;43.00;;;;;7.20;100.00;99088.00;6179818;28;96278;-55
2023/12/28 00:09:26;;;;;;;;;56.00;44.00;;;;;7.19;100.00;99085.50;6176963;28;97518;-55
2023/12/28 00:12:31;;;;;;;;;55.75;44.00;;;;;7.21;100.00;99094.19;6182436;28;96267;-58
2023/12/28 00:15:34;;;;;;;;;54.40;43.40;;;;;7.24;100.00;99091.09;6187049;28;96336;-59
2023/12/28 00:18:37;;;;;;;;;55.00;44.00;;;;;7.27;100.00;99093.41;6187529;28;96430;-59
2023/12/28 00:21:41;;;;;;;;;56.40;45.00;;;;;7.28;100.00;99095.09;6186789;28;97561;-59
2023/12/28 00:24:44;;;;;;;;;56.60;46.00;;;;;7.20;100.00;99079.94;6186969;28;96322;-59
2023/12/28 00:27:49;;;;;;;;;56.25;45.25;;;;;7.19;100.00;99080.97;6187270;28;96307;-59
2023/12/28 00:30:52;;;;;;;;;58.50;47.50;;;;;7.18;100.00;99081.19;6209306;28;96262;-58
2023/12/28 00:33:56;;;;;;;;;59.60;47.40;;;;;7.14;100.00;99070.00;6210400;28;98090;-58
2023/12/28 00:37:00;;;;;;;;;59.40;46.00;;;;;7.16;100.00;99075.19;6169535;28;96855;-59
2023/12/28 00:40:03;;;;;;;;;56.60;44.80;;;;;7.13;100.00;99064.84;6159562;28;96688;-58
2023/12/28 00:43:08;;;;;;;;;57.00;44.80;;;;;7.05;100.00;99063.13;6162336;28;96856;-58
2023/12/28 00:46:11;;;;;;;;;59.50;47.25;;;;;7.06;100.00;99063.97;6177026;28;96682;-58
2023/12/28 00:49:14;;;;;;;;;57.20;46.00;;;;;7.06;100.00;99058.59;6165054;28;96225;-58
2023/12/28 00:52:17;;;;;;;;;59.20;46.00;;;;;7.04;100.00;99058.78;6186672;28;97171;-58
2023/12/28 00:55:21;;;;;;;;;59.00;46.60;;;;;7.02;100.00;99057.34;6185670;28;98799;-58
2023/12/28 00:58:25;;;;;;;;;57.80;46.60;;;;;7.01;100.00;99050.31;6185236;28;98808;-58
2023/12/28 01:01:30;;;;;;;;;55.50;45.00;;;;;7.00;100.00;99060.22;6174821;28;96385;-58
2023/12/28 01:04:33;;;;;;;;;59.00;46.00;;;;;6.97;100.00;99041.84;6184975;28;96872;-59
2023/12/28 01:07:38;;;;;;;;;56.00;45.50;;;;;6.92;100.00;99041.59;6201720;28;96343;-59
2023/12/28 01:10:41;;;;;;;;;62.00;47.00;;;;;6.87;100.00;99031.47;6185319;28;96269;-58
2023/12/28 01:13:46;;;;;;;;;59.00;47.00;;;;;6.80;100.00;99025.22;6185411;28;96510;-58
2023/12/28 01:16:49;;;;;;;;;57.00;46.00;;;;;6.76;100.00;99013.22;6168870;28;97219;-58
2023/12/28 01:19:52;;;;;;;;;58.40;46.20;;;;;6.76;100.00;99005.19;6186629;28;96356;-58
2023/12/28 01:22:55;;;;;;;;;58.00;46.00;;;;;6.72;100.00;98995.88;6187196;28;96788;-56
2023/12/28 01:25:58;;;;;;;;;56.80;45.40;;;;;6.67;100.00;98978.75;6187260;28;96890;-55
2023/12/28 01:29:03;;;;;;;;;57.80;44.80;;;;;6.69;100.00;98984.75;6184550;28;96863;-55
2023/12/28 01:32:06;;;;;;;;;55.00;44.50;;;;;6.65;100.00;98983.44;6161982;28;96409;-56
2023/12/28 01:35:09;;;;;;;;;58.00;45.00;;;;;6.66;100.00;98985.94;6163786;28;96356;-56
2023/12/28 01:38:12;;;;;;;;;55.50;44.00;;;;;6.65;100.00;98981.59;6178170;28;96644;-56
2023/12/28 01:41:16;;;;;;;;;52.00;42.00;;;;;6.68;100.00;98977.72;6189537;28;96308;-56
2023/12/28 01:44:20;;;;;;;;;53.50;43.50;;;;;6.70;100.00;98973.81;6198391;28;96386;-56
2023/12/28 01:47:24;;;;;;;;;57.60;45.00;;;;;6.67;100.00;98963.50;6211640;28;96282;-56
2023/12/28 01:50:28;;;;;;;;;56.00;44.00;;;;;6.49;100.00;98947.91;6194207;28;96350;-56
2023/12/28 01:53:31;;;;;;;;;55.60;44.60;;;;;6.60;100.00;98954.56;6182089;28;96371;-56
2023/12/28 01:56:35;;;;;;;;;56.50;45.75;;;;;6.61;100.00;98948.19;6174225;28;96250;-56
2023/12/28 01:59:40;;;;;;;;;57.40;44.60;;;;;6.61;100.00;98956.22;6206003;28;96562;-56
2023/12/28 02:02:44;;;;;;;;;56.00;45.00;;;;;6.61;100.00;98947.34;6204160;22;97439;-56
2023/12/28 02:05:47;;;;;;;;;57.00;45.00;;;;;6.58;100.00;98931.69;6216188;28;97132;-56
2023/12/28 02:08:50;;;;;;;;;55.40;44.00;;;;;6.43;100.00;98916.56;6215837;28;96547;-55
2023/12/28 02:11:55;;;;;;;;;57.00;45.00;;;;;6.54;100.00;98931.25;6197775;28;97230;-56
2023/12/28 02:15:00;;;;;;;;;56.00;44.00;;;;;6.53;100.00;98924.25;6215701;28;96303;-56
2023/12/28 02:18:11;;;;;;;;;54.00;43.00;;;;;6.52;100.00;98915.38;6215919;28;96381;-56
2023/12/28 02:21:14;;;;;;;;;55.40;44.00;;;;;6.50;100.00;98905.88;6216406;28;96486;-56
2023/12/28 02:24:17;;;;;;;;;60.75;46.00;;;;;6.51;100.00;98910.22;6197422;28;96307;-56
2023/12/28 02:27:22;;;;;;;;;57.20;46.00;;;;;6.50;100.00;98914.72;6215976;28;96300;-55
2023/12/28 02:30:25;;;;;;;;;55.40;43.80;;;;;6.48;100.00;98911.44;6196358;28;96364;-56
2023/12/28 02:33:37;;;;;;;;;52.60;43.40;;;;;6.45;100.00;98902.97;6208828;28;96754;-55
2023/12/28 02:36:45;;;;;;;;;56.60;44.60;;;;;6.28;100.00;98890.88;6177450;28;97383;-55
2023/12/28 02:39:51;;;;;;;;;55.50;44.75;;;;;6.27;100.00;98897.25;6201725;28;96319;-55
2023/12/28 02:42:56;;;;;;;;;53.60;42.40;;;;;6.37;100.00;98892.38;6210109;28;96649;-55
2023/12/28 02:45:59;;;;;;;;;53.20;43.20;;;;;6.37;100.00;98890.53;6213819;28;96338;-55
2023/12/28 02:49:03;;;;;;;;;56.80;45.20;;;;;6.40;100.00;98890.13;6195275;28;96839;-56
2023/12/28 02:52:08;;;;;;;;;55.00;43.80;;;;;6.40;100.00;98894.69;6197194;28;96651;-55
2023/12/28 02:55:11;;;;;;;;;56.40;43.00;;;;;6.36;100.00;98899.59;6220073;28;96393;-55
2023/12/28 02:58:16;;;;;;;;;53.75;43.75;;;;;6.33;100.00;98894.63;6201060;28;96391;-55
2023/12/28 03:01:19;;;;;;;;;54.00;44.00;;;;;6.32;100.00;98892.97;6219391;28;96309;-55
2023/12/28 03:04:22;;;;;;;;;56.40;45.00;;;;;6.30;100.00;98886.19;6216278;28;96235;-54
2023/12/28 03:07:27;;;;;;;;;55.25;44.75;;;;;6.31;100.00;98883.28;6198199;28;96469;-55
2023/12/28 03:10:30;;;;;;;;;54.00;44.00;;;;;6.32;100.00;98884.09;6208265;28;97269;-55
2023/12/28 03:13:36;;;;;;;;;58.00;46.00;;;;;6.34;100.00;98890.13;6193130;28;96257;-55
2023/12/28 03:16:39;;;;;;;;;53.80;43.00;;;;;6.23;100.00;98874.56;6196982;28;96470;-55
2023/12/28 03:19:42;;;;;;;;;58.00;45.00;;;;;6.30;100.00;98903.06;6206604;28;96692;-56
2023/12/28 03:22:45;;;;;;;;;55.00;44.20;;;;;6.12;100.00;98877.78;6201362;28;96260;-55
2023/12/28 03:25:48;;;;;;;;;57.00;45.00;;;;;6.26;100.00;98901.78;6201533;28;96353;-55
2023/12/28 03:28:53;;;;;;;;;58.00;46.00;;;;;6.25;100.00;98896.63;6220130;28;96516;-55
2023/12/28 03:31:56;;;;;;;;;57.00;45.00;;;;;6.20;100.00;98893.72;6209091;28;97065;-55
2023/12/28 03:34:59;;;;;;;;;56.60;44.00;;;;;6.18;100.00;98891.22;6209931;28;96218;-55
2023/12/28 03:38:03;;;;;;;;;59.60;48.00;;;;;6.19;100.00;98878.66;6191738;28;96469;-55
2023/12/28 03:41:06;;;;;;;;;55.00;44.00;;;;;6.19;100.00;98882.16;6199769;28;97131;-55
2023/12/28 03:44:10;;;;;;;;;58.80;46.20;;;;;6.05;100.00;98875.88;6205169;28;96372;-58
2023/12/28 03:47:13;;;;;;;;;55.00;45.00;;;;;6.00;100.00;98867.59;6212535;28;96417;-58
2023/12/28 03:50:17;;;;;;;;;56.00;44.00;;;;;6.00;100.00;98859.59;6211557;28;96924;-58
2023/12/28 03:53:20;;;;;;;;;53.20;42.40;;;;;6.02;100.00;98862.03;6186180;28;96259;-58
2023/12/28 03:56:25;;;;;;;;;57.00;45.00;;;;;6.03;100.00;98853.00;6205008;28;96416;-58
2023/12/28 03:59:30;;;;;;;;;57.00;46.50;;;;;6.00;100.00;98846.19;6186422;28;96932;-58
2023/12/28 04:02:33;;;;;;;;;55.40;43.40;;;;;6.03;100.00;98855.69;6199529;28;96714;-58
2023/12/28 04:05:37;;;;;;;;;53.75;43.00;;;;;6.04;100.00;98849.31;6211451;28;96291;-58
2023/12/28 04:08:40;;;;;;;;;58.60;44.60;;;;;6.04;100.00;98847.47;6192347;28;98584;-58
2023/12/28 04:11:43;;;;;;;;;58.60;46.80;;;;;6.06;100.00;98834.69;6192018;28;96956;-58
2023/12/28 04:14:48;;;;;;;;;55.40;43.40;;;;;6.09;100.00;98834.31;6186428;28;96245;-58
2023/12/28 04:17:52;;;;;;;;;54.50;44.00;;;;;6.12;100.00;98826.91;6193369;28;96235;-58
2023/12/28 04:20:55;;;;;;;;;56.75;44.75;;;;;6.15;100.00;98821.19;6193275;28;96771;-58
2023/12/28 04:23:58;;;;;;;;;56.80;44.20;;;;;6.17;100.00;98821.81;6210224;28;96728;-58
2023/12/28 04:27:02;;;;;;;;;55.00;45.00;;;;;6.01;100.00;98794.31;6198511;28;96929;-58
2023/12/28 04:30:08;;;;;;;;;52.60;44.00;;;;;6.18;100.00;98816.28;6210397;28;96568;-58
2023/12/28 04:33:11;;;;;;;;;51.80;41.20;;;;;6.19;100.00;98822.44;6191951;28;96333;-58
2023/12/28 04:36:14;;;;;;;;;53.60;43.60;;;;;6.19;100.00;98825.97;6177809;28;97919;-58
2023/12/28 04:39:17;;;;;;;;;52.00;41.60;;;;;6.22;100.00;98838.09;6186985;28;96298;-58
2023/12/28 04:42:21;;;;;;;;;46.40;39.00;;;;;6.20;100.00;98843.69;6176313;28;98673;-58
2023/12/28 04:45:25;;;;;;;;;46.50;39.50;;;;;6.24;100.00;98854.81;6216368;28;96331;-58
2023/12/28 04:48:28;;;;;;;;;43.60;36.20;;;;;6.30;100.00;98846.84;6211456;28;96188;-58
2023/12/28 04:51:32;;;;;;;;;46.00;39.00;;;;;6.34;100.00;98852.63;6194240;28;96240;-58
2023/12/28 04:54:35;;;;;;;;;52.75;42.25;;;;;6.27;100.00;98854.41;6213846;28;96519;-55
2023/12/28 04:57:39;;;;;;;;;51.80;41.00;;;;;6.19;100.00;98858.06;6197519;28;96405;-55
2023/12/28 05:00:43;;;;;;;;;57.00;44.00;;;;;6.09;100.00;98855.75;6195498;28;97069;-56
2023/12/28 05:03:46;;;;;;;;;55.00;44.00;;;;;5.99;100.00;98857.09;6186841;28;97013;-56
2023/12/28 05:06:49;;;;;;;;;53.20;43.80;;;;;5.93;100.00;98860.53;6194886;28;97657;-56
2023/12/28 05:09:53;;;;;;;;;49.25;39.75;;;;;5.88;100.00;98866.47;6212561;28;96552;-55
2023/12/28 05:12:56;;;;;;;;;52.80;42.80;;;;;5.73;100.00;98841.59;6207742;28;96355;-55
2023/12/28 05:16:07;;;;;;;;;52.20;42.00;;;;;5.76;100.00;98859.94;6221771;28;96592;-56
2023/12/28 05:19:10;;;;;;;;;53.00;43.00;;;;;5.76;100.00;98859.94;6213637;28;96467;-55
2023/12/28 05:22:13;;;;;;;;;53.50;43.00;;;;;5.70;100.00;98839.31;6194925;28;98747;-56
2023/12/28 05:25:16;;;;;;;;;52.00;40.00;;;;;5.57;100.00;98837.31;6212537;28;96534;-56
2023/12/28 05:28:19;;;;;;;;;53.50;42.25;;;;;5.65;100.00;98844.41;6222636;28;96352;-56
2023/12/28 05:31:24;;;;;;;;;52.00;42.80;;;;;5.64;100.00;98850.75;6231853;28;96162;-56
2023/12/28 05:34:27;;;;;;;;;54.60;43.00;;;;;5.63;100.00;98838.41;6219122;28;96418;-55
2023/12/28 05:37:30;;;;;;;;;55.25;45.00;;;;;5.64;100.00;98840.91;6221320;28;96135;-56
2023/12/28 05:40:33;;;;;;;;;52.00;42.00;;;;;5.63;100.00;98827.72;6222658;28;96433;-55
2023/12/28 05:43:36;;;;;;;;;55.00;44.00;;;;;5.54;100.00;98813.66;6217177;28;96786;-55
2023/12/28 05:46:41;;;;;;;;;52.00;43.00;;;;;5.62;100.00;98826.88;6197166;28;96563;-56
2023/12/28 05:49:44;;;;;;;;;56.00;45.00;;;;;5.61;100.00;98827.09;6203241;28;96638;-56
2023/12/28 05:52:47;;;;;;;;;60.40;46.00;;;;;5.60;100.00;98838.81;6216654;28;96242;-55
2023/12/28 05:55:50;;;;;;;;;57.00;45.00;;;;;5.62;100.00;98845.59;6215589;28;96669;-56
2023/12/28 05:58:53;;;;;;;;;55.00;44.00;;;;;5.63;100.00;98833.88;6209408;28;96386;-56
2023/12/28 06:01:58;;;;;;;;;57.20;45.20;;;;;5.68;100.00;98852.03;6201861;28;98529;-56
2023/12/28 06:05:01;;;;;;;;;54.50;43.50;;;;;5.76;100.00;98849.25;6218217;28;96353;-56
2023/12/28 06:08:05;;;;;;;;;55.40;43.00;;;;;5.82;100.00;98864.50;6193159;28;97189;-55
2023/12/28 06:11:08;;;;;;;;;53.00;42.60;;;;;5.87;100.00;98880.03;6215993;28;96982;-56
2023/12/28 06:14:11;;;;;;;;;54.00;44.00;;;;;5.80;100.00;98869.25;6199732;28;96371;-56
2023/12/28 06:17:16;;;;;;;;;55.00;44.00;;;;;5.91;100.00;98878.63;6216642;28;96454;-55
2023/12/28 06:20:19;;;;;;;;;52.20;42.00;;;;;5.88;100.00;98873.66;6216788;28;97007;-55
2023/12/28 06:23:22;;;;;;;;;54.75;43.00;;;;;5.74;100.00;98871.84;6206766;28;96293;-56
2023/12/28 06:26:25;;;;;;;;;52.50;41.50;;;;;5.64;100.00;98872.16;6216321;28;96346;-55
2023/12/28 06:29:28;;;;;;;;;51.80;41.80;;;;;5.56;100.00;98865.09;6214648;28;96958;-55
2023/12/28 06:32:33;;;;;;;;;51.40;41.00;;;;;5.54;100.00;98868.97;6216448;28;96457;-56
2023/12/28 06:35:36;;;;;;;;;47.00;39.00;;;;;5.44;100.00;98841.72;6214232;28;96474;-55
2023/12/28 06:38:39;;;;;;;;;48.20;37.60;;;;;5.35;100.00;98850.88;6205521;28;96353;-55
2023/12/28 06:41:42;;;;;;;;;43.00;36.00;;;;;5.44;100.00;98839.03;6213105;28;96621;-55
2023/12/28 06:44:45;;;;;;;;;44.40;37.40;;;;;5.56;100.00;98838.38;6215635;28;96364;-55
2023/12/28 06:47:50;;;;;;;;;39.00;33.00;;;;;5.77;100.00;98839.34;6214118;28;96532;-56
2023/12/28 06:50:53;;;;;;;;;39.67;31.67;;;;;5.98;100.00;98836.69;6223096;28;97568;-55
2023/12/28 06:53:57;;;;;;;;;32.00;27.60;;;;;6.19;100.00;98844.69;6197064;28;96717;-57
2023/12/28 06:57:00;;;;;;;;;33.25;30.00;;;;;6.47;100.00;98856.22;6213791;28;96849;-56
2023/12/28 07:00:04;;;;;;;;;32.00;29.00;;;;;6.72;100.00;98861.09;6214312;28;96364;-56
2023/12/28 07:03:09;;;;;;;;;32.00;29.00;;;;;6.99;100.00;98843.31;6214222;28;96866;-56
2023/12/28 07:06:12;;;;;;;;;28.00;25.60;;;;;7.26;100.00;98853.94;6214540;28;96465;-56
2023/12/28 07:09:15;;;;;;;;;25.00;24.00;;;;;7.51;100.00;98839.97;6214853;28;96918;-56
2023/12/28 07:12:20;;;;;;;;;22.00;20.00;;;;;7.83;100.00;98840.00;6215490;28;96179;-56
2023/12/28 07:15:23;;;;;;;;;17.75;16.75;;;;;8.16;100.00;98855.31;6233072;28;96259;-56
2023/12/28 07:18:28;;;;;;;;;14.00;14.00;;;;;8.47;100.00;98854.69;6236125;28;96376;-56
2023/12/28 07:21:32;;;;;;;;;18.60;18.00;;;;;8.83;100.00;98862.28;6238430;28;96356;-55
2023/12/28 07:24:35;;;;;;;;;31.50;26.00;;;;;9.14;100.00;98870.41;6239828;28;96347;-56
2023/12/28 07:27:38;;;;;;;;;30.40;27.40;;;;;9.32;100.00;98873.25;6238492;28;96022;-56
2023/12/28 07:30:41;;;;;;;;;33.80;30.00;;;;;9.48;100.00;98875.44;6220915;28;96299;-56
2023/12/28 07:33:46;;;;;;;;;33.00;30.00;;;;;9.56;100.00;98875.22;6239645;28;96345;-56
2023/12/28 07:36:50;;;;;;;;;33.20;30.00;;;;;9.90;100.00;98876.66;6224472;28;96930;-57
2023/12/28 07:39:53;;;;;;;;;36.00;31.60;;;;;10.16;100.00;98886.47;6240523;28;96197;-56
2023/12/28 07:42:57;;;;;;;;;43.60;34.60;;;;;10.40;100.00;98874.84;6242401;28;96349;-56
2023/12/28 07:46:00;;;;;;;;;46.67;36.00;;;;;11.03;100.00;98865.72;6233920;28;99691;-56
2023/12/28 07:49:05;;;;;;;;;43.00;35.80;;;;;12.26;100.00;98861.53;6235458;28;97027;-56
2023/12/28 07:52:08;;;;;;;;;48.80;37.40;;;;;13.88;100.00;98860.41;6234237;28;96508;-56
2023/12/28 07:55:11;;;;;;;;;46.80;37.00;;;;;15.99;100.00;98873.75;6231587;28;96575;-57
2023/12/28 07:58:15;;;;;;;;;41.60;35.60;;;;;18.22;100.00;98872.31;6232988;28;97306;-57
2023/12/28 08:01:19;;;;;;;;;42.00;34.00;;;;;20.35;100.00;98875.25;6253986;28;96328;-57
2023/12/28 08:04:23;;;;;;;;;39.00;34.00;;;;;22.34;100.00;98866.09;6251983;28;96633;-58
2023/12/28 08:07:27;;;;;;;;;36.50;32.00;;;;;24.23;92.36;98858.63;6234882;28;96921;-57
2023/12/28 08:10:30;;;;;;;;;34.00;31.00;;;;;25.87;84.51;98853.63;6234478;28;96314;-57
2023/12/28 08:13:33;;;;;;;;;34.40;31.00;;;;;27.21;75.39;98847.03;6229358;28;96918;-58
2023/12/28 08:16:36;;;;;;;;;39.40;33.80;;;;;28.62;73.84;98851.81;6225248;28;96538;-58
2023/12/28 08:19:40;;;;;;;;;30.40;28.40;;;;;29.74;69.53;98847.72;6225230;28;96334;-58
2023/12/28 08:22:43;;;;;;;;;37.00;32.00;;;;;30.61;65.13;98864.69;6227101;28;96309;-59
2023/12/28 08:25:46;;;;;;;;;40.00;35.00;;;;;31.44;62.62;98863.75;6210690;28;96513;-60
2023/12/28 08:28:50;;;;;;;;;40.50;33.00;;;;;32.19;61.58;98869.97;6210595;28;96302;-60
2023/12/28 08:31:53;;;;;;;;;44.20;34.40;;;;;33.01;59.55;98866.06;6223477;28;96837;-60
2023/12/28 08:34:58;;;;;;;;;39.80;33.80;;;;;33.83;58.63;98871.91;6237053;28;96462;-60
2023/12/28 08:38:01;;;;;;;;;38.00;33.25;;;;;34.40;57.32;98866.34;6222658;28;96489;-60
2023/12/28 08:41:08;;;;;;;;;39.40;34.00;;;;;34.86;56.06;98876.13;6210161;28;96638;-60
2023/12/28 08:44:12;;;;;;;;;35.00;32.00;;;;;35.40;55.01;98878.31;6193932;28;96895;-60
2023/12/28 08:47:15;;;;;;;;;37.20;32.60;;;;;35.92;53.63;98877.13;6210553;28;96322;-61
2023/12/28 08:50:20;;;;;;;;;40.60;34.00;;;;;36.35;53.95;98871.81;6202980;28;98786;-60
2023/12/28 08:53:23;;;;;;;;;39.50;34.25;;;;;36.58;51.97;98849.03;6210739;28;96487;-61
2023/12/28 08:56:26;;;;;;;;;41.00;35.00;;;;;37.01;51.11;98875.28;6213588;28;96289;-61
2023/12/28 08:59:29;;;;;;;;;40.00;34.50;;;;;37.53;51.28;98863.34;6217063;28;96430;-61
2023/12/28 09:02:32;;;;;;;;;39.60;34.00;;;;;38.04;49.38;98859.28;6217923;28;96393;-61
2023/12/28 09:05:37;;;;;;;;;40.00;34.00;;;;;38.53;49.21;98833.00;6199634;28;98417;-61
2023/12/28 09:08:43;;;;;;;;;34.40;32.00;;;;;39.15;48.55;98851.97;6215367;28;97097;-61
2023/12/28 09:11:46;;;;;;;;;37.40;32.40;;;;;39.46;47.76;98850.16;6215462;28;96693;-61
2023/12/28 09:14:52;;;;;;;;;35.60;32.00;;;;;39.80;46.71;98818.03;6213346;28;97021;-61
2023/12/28 09:17:56;;;;;;;;;36.00;32.33;;;;;40.43;46.44;98841.13;6195428;28;96725;-61
2023/12/28 09:21:01;;;;;;;;;36.00;32.00;;;;;40.86;45.83;98832.13;6214110;28;96260;-61
2023/12/28 09:24:05;;;;;;;;;38.00;33.00;;;;;41.13;44.38;98835.75;6213407;28;96617;-61
2023/12/28 09:27:08;;;;;;;;;42.25;35.00;;;;;41.23;45.00;98831.97;6214642;28;96672;-61
2023/12/28 09:30:12;;;;;;;;;40.00;34.00;;;;;41.37;44.53;98833.75;6214587;28;96366;-61
2023/12/28 09:33:16;;;;;;;;;40.20;34.00;;;;;41.32;44.78;98823.72;6215083;28;97453;-61
2023/12/28 09:36:22;;;;;;;;;36.00;32.40;;;;;41.21;44.58;98799.66;6207083;28;96428;-62
2023/12/28 09:39:25;;;;;;;;;40.00;35.00;;;;;41.28;44.43;98799.56;6213229;28;96328;-62
2023/12/28 09:42:35;;;;;;;;;37.50;33.00;;;;;41.81;44.10;98816.41;6215496;28;96280;-62
2023/12/28 09:45:38;;;;;;;;;38.60;33.00;;;;;42.11;42.96;98818.31;6220564;28;96325;-58
2023/12/28 09:48:42;;;;;;;;;38.00;33.00;;;;;42.46;42.94;98802.63;6221541;28;97658;-58
2023/12/28 09:51:48;;;;;;;;;37.20;33.00;;;;;42.60;42.92;98805.16;6220581;28;96276;-58
2023/12/28 09:54:51;;;;;;;;;37.60;32.80;;;;;42.59;42.67;98809.22;6221283;28;96296;-58
2023/12/28 09:57:57;;;;;;;;;40.60;35.00;;;;;42.53;43.04;98810.16;6219984;28;96441;-58
2023/12/28 10:01:00;;;;;;;;;40.60;34.00;;;;;42.46;42.55;98804.66;6219803;28;96485;-59
2023/12/28 10:04:04;;;;;;;;;44.00;36.75;;;;;42.52;42.33;98811.41;6226727;28;96268;-58
2023/12/28 10:07:08;;;;;;;;;39.60;35.00;;;;;42.62;42.31;98801.84;6234248;28;96318;-58
2023/12/28 10:10:12;;;;;;;;;40.00;35.00;;;;;42.70;42.52;98803.34;6235947;28;96723;-58
2023/12/28 10:13:15;;;;;;;;;42.00;35.80;;;;;42.85;41.94;98792.47;6218595;28;96341;-59
2023/12/28 10:16:19;;;;;;;;;41.00;34.67;;;;;42.90;42.07;98789.91;6219425;28;96308;-58
2023/12/28 10:19:23;;;;;;;;;40.50;34.50;;;;;42.82;41.68;98787.66;6219252;28;96487;-59
2023/12/28 10:22:28;;;;;;;;;38.80;34.00;;;;;42.96;41.80;98793.78;6220263;28;96935;-58
2023/12/28 10:25:33;;;;;;;;;38.40;33.00;;;;;43.11;41.73;98788.59;6219586;28;96330;-58
2023/12/28 10:28:38;;;;;;;;;38.00;33.00;;;;;43.22;41.79;98788.34;6220340;28;96258;-58
2023/12/28 10:31:43;;;;;;;;;41.00;35.00;;;;;43.25;41.93;98793.16;6228994;28;97067;-58
2023/12/28 10:34:47;;;;;;;;;41.00;35.00;;;;;43.22;42.62;98782.66;6226049;28;96980;-58
2023/12/28 10:37:53;;;;;;;;;43.80;35.40;;;;;43.11;42.54;98780.88;6202631;28;96371;-58
2023/12/28 10:40:56;;;;;;;;;37.00;32.00;;;;;43.07;42.64;98768.84;6220761;28;96320;-58
2023/12/28 10:44:06;;;;;;;;;45.00;37.00;;;;;43.10;42.84;98776.47;6221881;28;96481;-58
2023/12/28 10:47:17;;;;;;;;;43.00;35.00;;;;;43.14;42.22;98767.88;6218457;28;97295;-58
2023/12/28 10:50:20;;;;;;;;;45.20;34.60;;;;;43.24;41.93;98781.00;6202234;28;98800;-59
2023/12/28 10:53:34;;;;;;;;;44.00;37.60;;;;;43.45;42.42;98771.13;6215291;28;96663;-58
2023/12/28 10:56:42;;;;;;;;;42.60;35.60;;;;;43.43;41.67;98782.94;6218824;28;96249;-59
2023/12/28 10:59:57;;;;;;;;;40.50;34.50;;;;;43.36;42.32;98783.09;6220500;28;96491;-58
2023/12/28 11:03:04;;;;;;;;;45.00;37.00;;;;;43.19;41.91;98784.38;6219039;28;96523;-59
2023/12/28 11:06:09;;;;;;;;;47.00;38.00;;;;;43.11;42.30;98785.75;6198829;28;96570;-58
2023/12/28 11:09:15;;;;;;;;;45.00;38.00;;;;;43.09;42.27;98791.09;6221545;28;96642;-58
2023/12/28 11:12:20;;;;;;;;;45.40;37.00;;;;;42.88;42.49;98783.88;6205521;28;96584;-59
2023/12/28 11:15:24;;;;;;;;;47.00;38.00;;;;;42.64;42.45;98774.69;6217754;28;96246;-59
2023/12/28 11:18:29;;;;;;;;;47.00;39.00;;;;;42.44;42.34;98775.94;6217974;28;96472;-59
2023/12/28 11:21:33;;;;;;;;;46.40;38.00;;;;;42.20;42.46;98753.34;6216104;28;97801;-59
2023/12/28 11:24:38;;;;;;;;;47.00;39.00;;;;;42.20;42.81;98764.69;6213660;28;97730;-59
2023/12/28 11:27:42;;;;;;;;;46.00;38.60;;;;;41.88;43.00;98750.41;6215894;28;96267;-58
2023/12/28 11:30:47;;;;;;;;;42.80;37.20;;;;;41.32;42.87;98752.19;6217551;28;96987;-59
2023/12/28 11:33:53;;;;;;;;;44.75;36.75;;;;;41.15;43.97;98739.19;6218612;28;96515;-59
2023/12/28 11:37:01;;;;;;;;;45.00;37.60;;;;;40.93;44.21;98742.31;6218837;28;96447;-58
2023/12/28 11:40:15;;;;;;;;;45.40;37.00;;;;;40.82;44.27;98753.00;6213711;28;96617;-59
2023/12/28 11:43:20;;;;;;;;;42.75;36.00;;;;;40.68;44.38;98720.09;6214483;28;96362;-59
2023/12/28 11:46:24;;;;;;;;;44.00;37.00;;;;;40.76;44.54;98731.31;6215739;28;96905;-58
2023/12/28 11:49:29;;;;;;;;;42.00;36.00;;;;;40.71;44.56;98728.97;6215241;28;96770;-58
2023/12/28 11:52:34;;;;;;;;;39.40;33.40;;;;;40.54;44.11;98740.06;6212537;28;96980;-59
2023/12/28 11:55:38;;;;;;;;;41.00;35.00;;;;;40.29;45.10;98733.97;6213846;28;96395;-58
2023/12/28 11:58:44;;;;;;;;;44.40;36.00;;;;;40.05;45.26;98741.50;6216629;28;96339;-58
2023/12/28 12:01:51;;;;;;;;;41.00;35.00;;;;;39.84;45.98;98739.75;6213837;28;96830;-58
2023/12/28 12:04:56;;;;;;;;;43.00;36.00;;;;;39.53;45.93;98740.88;6204412;28;96811;-58
2023/12/28 12:08:00;;;;;;;;;41.00;35.00;;;;;39.27;46.87;98728.19;6191074;28;96414;-58
2023/12/28 12:11:07;;;;;;;;;41.00;35.00;;;;;38.92;46.74;98722.88;6191222;28;96413;-58
2023/12/28 12:14:12;;;;;;;;;41.00;35.00;;;;;38.62;47.13;98725.47;6190406;28;97098;-57
2023/12/28 12:17:15;;;;;;;;;44.40;35.80;;;;;38.17;47.87;98723.28;6191284;28;97055;-57
2023/12/28 12:20:18;;;;;;;;;38.00;34.00;;;;;37.78;48.81;98708.56;6186366;28;96891;-57
2023/12/28 12:23:22;;;;;;;;;37.20;33.60;;;;;37.22;49.36;98701.84;6216251;28;96368;-57
2023/12/28 12:26:26;;;;;;;;;40.00;35.00;;;;;36.83;49.88;98706.66;6214841;28;96302;-56
2023/12/28 12:29:31;;;;;;;;;40.25;34.00;;;;;36.32;51.24;98688.09;6216704;28;96416;-57
2023/12/28 12:32:37;;;;;;;;;37.00;32.60;;;;;35.81;51.62;98696.72;6215919;28;96407;-56
2023/12/28 12:35:41;;;;;;;;;41.75;34.75;;;;;35.01;53.31;98687.38;6216077;28;96489;-57
2023/12/28 12:38:44;;;;;;;;;40.50;33.50;;;;;34.18;54.63;98683.38;6215017;28;96420;-57
2023/12/28 12:41:49;;;;;;;;;37.25;32.25;;;;;33.23;56.58;98688.50;6215961;28;96377;-56
2023/12/28 12:44:52;;;;;;;;;38.60;32.00;;;;;32.21;58.84;98696.63;6216345;28;96985;-56
2023/12/28 12:47:56;;;;;;;;;36.75;32.00;;;;;30.92;61.27;98661.56;6216741;28;96586;-56
2023/12/28 12:50:59;;;;;;;;;36.25;32.75;;;;;29.86;64.08;98680.94;6216671;28;96400;-56
2023/12/28 12:54:03;;;;;;;;;36.25;32.00;;;;;28.80;67.17;98675.69;6215885;28;96497;-56
2023/12/28 12:57:08;;;;;;;;;39.25;33.00;;;;;27.81;70.35;98672.19;6215762;28;96290;-56
2023/12/28 13:00:12;;;;;;;;;36.00;32.00;;;;;26.97;73.89;98670.53;6216328;28;96339;-56
2023/12/28 13:03:15;;;;;;;;;33.80;29.80;;;;;26.28;76.27;98686.56;6230202;28;96325;-56
2023/12/28 13:06:22;;;;;;;;;37.00;32.00;;;;;25.68;79.20;98690.22;6226568;28;96873;-57
2023/12/28 13:09:26;;;;;;;;;40.50;33.00;;;;;25.06;82.94;98689.63;6191725;28;96255;-56
2023/12/28 13:12:30;;;;;;;;;37.80;33.00;;;;;24.48;85.01;98687.94;6190677;28;98440;-56
2023/12/28 13:15:33;;;;;;;;;40.00;33.40;;;;;24.03;87.65;98680.88;6213467;28;96480;-57
2023/12/28 13:18:36;;;;;;;;;35.40;32.00;;;;;23.57;89.11;98683.91;6212649;28;98029;-56
2023/12/28 13:21:40;;;;;;;;;37.80;32.60;;;;;23.38;90.16;98688.75;6210260;28;96441;-57
2023/12/28 13:24:43;;;;;;;;;36.40;31.80;;;;;23.26;90.55;98679.09;6219763;28;96839;-60
2023/12/28 13:27:48;;;;;;;;;40.00;33.00;;;;;23.14;92.21;98689.00;6224821;28;96333;-58
2023/12/28 13:30:55;;;;;;;;;40.50;32.75;;;;;23.01;92.66;98687.91;6203447;28;96551;-60
2023/12/28 13:33:58;;;;;;;;;37.00;32.00;;;;;22.94;92.66;98694.94;6211651;28;96831;-59
2023/12/28 13:37:02;;;;;;;;;39.00;33.00;;;;;22.79;93.55;98679.56;6203202;28;96805;-60
2023/12/28 13:40:07;;;;;;;;;36.60;32.60;;;;;22.64;94.95;98686.16;6201749;28;96557;-59
2023/12/28 13:43:12;;;;;;;;;35.40;31.60;;;;;22.54;95.94;98686.34;6194797;28;96978;-59
2023/12/28 13:46:15;;;;;;;;;39.60;33.80;;;;;22.35;97.39;98685.63;6181985;28;96341;-59
2023/12/28 13:49:18;;;;;;;;;36.00;32.00;;;;;22.16;98.27;98671.16;6211090;28;96466;-59
2023/12/28 13:52:21;;;;;;;;;35.00;32.00;;;;;21.96;99.24;98684.13;6219649;28;96314;-59
2023/12/28 13:55:25;;;;;;;;;38.20;33.60;;;;;21.78;99.93;98676.72;6183134;28;98459;-59
2023/12/28 13:58:29;;;;;;;;;38.50;33.50;;;;;21.63;100.00;98676.16;6208941;28;96741;-60
2023/12/28 14:01:32;;;;;;;;;36.20;33.00;;;;;21.50;100.00;98670.31;6208467;28;98533;-59
2023/12/28 14:04:35;;;;;;;;;35.00;32.20;;;;;21.33;100.00;98680.19;6206773;28;97233;-59